sensor_id;sensor_type;location;lat;lon;timestamp;P1;durP1;ratioP1;P2;durP2;ratioP2
20318;SDS011;10317;47.254;11.314;2023-01-16T00:00:53;3.17;;;2.97;;
20318;SDS011;10317;47.254;11.314;2023-01-16T00:03:20;5.25;;;4.30;;
20318;SDS011;10317;47.254;11.314;2023-01-16T00:05:46;4.22;;;3.80;;
20318;SDS011;10317;47.254;11.314;2023-01-16T00:08:12;3.80;;;3.50;;
20318;SDS011;10317;47.254;11.314;2023-01-16T00:10:38;4.88;;;4.38;;
20318;SDS011;10317;47.254;11.314;2023-01-16T00:13:04;4.10;;;3.80;;
20318;SDS011;10317;47.254;11.314;2023-01-16T00:15:33;4.38;;;3.97;;
20318;SDS011;10317;47.254;11.314;2023-01-16T00:17:58;4.30;;;3.90;;
20318;SDS011;10317;47.254;11.314;2023-01-16T00:20:24;4.38;;;4.07;;
20318;SDS011;10317;47.254;11.314;2023-01-16T00:22:50;4.45;;;4.05;;
20318;SDS011;10317;47.254;11.314;2023-01-16T00:25:16;7.57;;;4.57;;
20318;SDS011;10317;47.254;11.314;2023-01-16T00:27:42;5.80;;;5.25;;
20318;SDS011;10317;47.254;11.314;2023-01-16T00:30:07;5.95;;;4.97;;
20318;SDS011;10317;47.254;11.314;2023-01-16T00:32:34;9.25;;;7.65;;
20318;SDS011;10317;47.254;11.314;2023-01-16T00:34:59;7.75;;;6.60;;
20318;SDS011;10317;47.254;11.314;2023-01-16T00:37:25;6.32;;;5.72;;
20318;SDS011;10317;47.254;11.314;2023-01-16T00:39:50;7.40;;;4.63;;
20318;SDS011;10317;47.254;11.314;2023-01-16T00:42:19;5.10;;;4.68;;
20318;SDS011;10317;47.254;11.314;2023-01-16T00:44:45;5.20;;;4.70;;
20318;SDS011;10317;47.254;11.314;2023-01-16T00:47:10;5.70;;;5.18;;
20318;SDS011;10317;47.254;11.314;2023-01-16T00:49:36;6.00;;;5.45;;
20318;SDS011;10317;47.254;11.314;2023-01-16T00:52:02;7.88;;;6.97;;
20318;SDS011;10317;47.254;11.314;2023-01-16T00:54:34;7.10;;;6.47;;
20318;SDS011;10317;47.254;11.314;2023-01-16T00:57:00;6.90;;;6.25;;
20318;SDS011;10317;47.254;11.314;2023-01-16T00:59:25;6.95;;;6.30;;
20318;SDS011;10317;47.254;11.314;2023-01-16T01:01:51;6.90;;;6.25;;
20318;SDS011;10317;47.254;11.314;2023-01-16T01:04:17;7.35;;;6.65;;
20318;SDS011;10317;47.254;11.314;2023-01-16T01:06:42;6.93;;;6.25;;
20318;SDS011;10317;47.254;11.314;2023-01-16T01:09:08;6.57;;;5.97;;
20318;SDS011;10317;47.254;11.314;2023-01-16T01:11:34;7.05;;;6.28;;
20318;SDS011;10317;47.254;11.314;2023-01-16T01:14:00;7.80;;;6.97;;
20318;SDS011;10317;47.254;11.314;2023-01-16T01:16:26;8.30;;;7.07;;
20318;SDS011;10317;47.254;11.314;2023-01-16T01:18:51;10.15;;;8.80;;
20318;SDS011;10317;47.254;11.314;2023-01-16T01:21:17;8.63;;;7.72;;
20318;SDS011;10317;47.254;11.314;2023-01-16T01:23:43;8.20;;;7.40;;
20318;SDS011;10317;47.254;11.314;2023-01-16T01:26:12;8.18;;;7.38;;
20318;SDS011;10317;47.254;11.314;2023-01-16T01:28:41;8.30;;;7.50;;
20318;SDS011;10317;47.254;11.314;2023-01-16T01:31:09;7.43;;;6.72;;
20318;SDS011;10317;47.254;11.314;2023-01-16T01:33:37;6.85;;;6.15;;
20318;SDS011;10317;47.254;11.314;2023-01-16T01:36:03;7.70;;;6.95;;
20318;SDS011;10317;47.254;11.314;2023-01-16T01:38:30;9.63;;;7.13;;
20318;SDS011;10317;47.254;11.314;2023-01-16T01:40:56;7.88;;;6.63;;
20318;SDS011;10317;47.254;11.314;2023-01-16T01:43:38;7.82;;;7.03;;
20318;SDS011;10317;47.254;11.314;2023-01-16T01:46:10;12.25;;;7.07;;
20318;SDS011;10317;47.254;11.314;2023-01-16T01:48:59;8.80;;;7.05;;
20318;SDS011;10317;47.254;11.314;2023-01-16T01:51:34;7.80;;;7.00;;
20318;SDS011;10317;47.254;11.314;2023-01-16T01:54:07;8.15;;;7.35;;
20318;SDS011;10317;47.254;11.314;2023-01-16T01:56:39;8.30;;;7.50;;
20318;SDS011;10317;47.254;11.314;2023-01-16T01:59:16;8.50;;;7.13;;
20318;SDS011;10317;47.254;11.314;2023-01-16T02:01:46;11.18;;;8.10;;
20318;SDS011;10317;47.254;11.314;2023-01-16T02:04:16;8.93;;;8.02;;
20318;SDS011;10317;47.254;11.314;2023-01-16T02:06:45;9.73;;;8.13;;
20318;SDS011;10317;47.254;11.314;2023-01-16T02:09:15;8.85;;;7.95;;
20318;SDS011;10317;47.254;11.314;2023-01-16T02:14:14;9.27;;;7.85;;
20318;SDS011;10317;47.254;11.314;2023-01-16T02:16:41;7.70;;;7.00;;
20318;SDS011;10317;47.254;11.314;2023-01-16T02:37:19;10.23;;;8.13;;
20318;SDS011;10317;47.254;11.314;2023-01-16T02:43:03;8.70;;;7.78;;
20318;SDS011;10317;47.254;11.314;2023-01-16T02:51:11;8.77;;;7.80;;
20318;SDS011;10317;47.254;11.314;2023-01-16T02:56:25;9.35;;;7.57;;
20318;SDS011;10317;47.254;11.314;2023-01-16T02:59:01;8.63;;;7.43;;
20318;SDS011;10317;47.254;11.314;2023-01-16T03:01:32;11.70;;;7.65;;
20318;SDS011;10317;47.254;11.314;2023-01-16T03:06:30;8.48;;;7.57;;
20318;SDS011;10317;47.254;11.314;2023-01-16T03:11:59;10.43;;;7.78;;
20318;SDS011;10317;47.254;11.314;2023-01-16T03:22:53;7.90;;;7.10;;
20318;SDS011;10317;47.254;11.314;2023-01-16T03:25:48;9.07;;;7.35;;
20318;SDS011;10317;47.254;11.314;2023-01-16T04:00:50;7.72;;;5.95;;
20318;SDS011;10317;47.254;11.314;2023-01-16T04:03:42;7.32;;;5.65;;
20318;SDS011;10317;47.254;11.314;2023-01-16T04:06:17;7.57;;;6.03;;
20318;SDS011;10317;47.254;11.314;2023-01-16T04:08:49;10.35;;;6.20;;
20318;SDS011;10317;47.254;11.314;2023-01-16T04:11:17;7.20;;;6.15;;
20318;SDS011;10317;47.254;11.314;2023-01-16T04:13:45;9.30;;;6.18;;
20318;SDS011;10317;47.254;11.314;2023-01-16T04:16:14;7.28;;;6.38;;
20318;SDS011;10317;47.254;11.314;2023-01-16T04:18:43;9.02;;;6.63;;
20318;SDS011;10317;47.254;11.314;2023-01-16T04:21:11;6.90;;;6.20;;
20318;SDS011;10317;47.254;11.314;2023-01-16T04:23:37;9.55;;;5.82;;
20318;SDS011;10317;47.254;11.314;2023-01-16T04:26:03;6.85;;;5.82;;
20318;SDS011;10317;47.254;11.314;2023-01-16T04:28:29;8.13;;;5.72;;
20318;SDS011;10317;47.254;11.314;2023-01-16T04:30:54;6.43;;;5.78;;
20318;SDS011;10317;47.254;11.314;2023-01-16T04:33:20;7.18;;;5.85;;
20318;SDS011;10317;47.254;11.314;2023-01-16T04:35:46;8.48;;;6.03;;
20318;SDS011;10317;47.254;11.314;2023-01-16T04:38:12;8.43;;;5.93;;
20318;SDS011;10317;47.254;11.314;2023-01-16T04:40:38;7.78;;;7.00;;
20318;SDS011;10317;47.254;11.314;2023-01-16T04:43:03;6.75;;;6.10;;
20318;SDS011;10317;47.254;11.314;2023-01-16T04:45:29;7.22;;;6.40;;
20318;SDS011;10317;47.254;11.314;2023-01-16T04:47:57;5.72;;;5.15;;
20318;SDS011;10317;47.254;11.314;2023-01-16T04:50:23;6.18;;;5.60;;
20318;SDS011;10317;47.254;11.314;2023-01-16T04:52:48;7.13;;;5.13;;
20318;SDS011;10317;47.254;11.314;2023-01-16T04:55:14;5.43;;;4.93;;
20318;SDS011;10317;47.254;11.314;2023-01-16T04:57:40;5.43;;;4.93;;
20318;SDS011;10317;47.254;11.314;2023-01-16T05:00:07;6.18;;;5.53;;
20318;SDS011;10317;47.254;11.314;2023-01-16T05:02:35;6.65;;;5.80;;
20318;SDS011;10317;47.254;11.314;2023-01-16T05:05:00;7.25;;;5.20;;
20318;SDS011;10317;47.254;11.314;2023-01-16T05:07:26;6.03;;;5.03;;
20318;SDS011;10317;47.254;11.314;2023-01-16T05:09:55;5.32;;;4.90;;
20318;SDS011;10317;47.254;11.314;2023-01-16T05:12:20;5.40;;;4.90;;
20318;SDS011;10317;47.254;11.314;2023-01-16T05:14:46;5.97;;;4.50;;
20318;SDS011;10317;47.254;11.314;2023-01-16T05:17:12;4.53;;;4.13;;
20318;SDS011;10317;47.254;11.314;2023-01-16T05:19:38;5.45;;;4.20;;
20318;SDS011;10317;47.254;11.314;2023-01-16T05:22:03;7.65;;;4.53;;
20318;SDS011;10317;47.254;11.314;2023-01-16T05:24:29;5.00;;;4.50;;
20318;SDS011;10317;47.254;11.314;2023-01-16T05:26:55;4.50;;;4.20;;
20318;SDS011;10317;47.254;11.314;2023-01-16T05:29:20;4.13;;;3.83;;
20318;SDS011;10317;47.254;11.314;2023-01-16T05:31:46;5.93;;;4.63;;
20318;SDS011;10317;47.254;11.314;2023-01-16T05:34:12;4.85;;;4.45;;
20318;SDS011;10317;47.254;11.314;2023-01-16T05:36:37;4.35;;;3.95;;
20318;SDS011;10317;47.254;11.314;2023-01-16T05:39:03;4.80;;;4.40;;
20318;SDS011;10317;47.254;11.314;2023-01-16T05:41:29;4.70;;;4.20;;
20318;SDS011;10317;47.254;11.314;2023-01-16T05:43:55;4.82;;;4.30;;
20318;SDS011;10317;47.254;11.314;2023-01-16T05:46:20;4.82;;;4.35;;
20318;SDS011;10317;47.254;11.314;2023-01-16T05:48:46;4.90;;;4.50;;
20318;SDS011;10317;47.254;11.314;2023-01-16T05:51:12;4.63;;;4.22;;
20318;SDS011;10317;47.254;11.314;2023-01-16T05:53:37;4.68;;;4.05;;
20318;SDS011;10317;47.254;11.314;2023-01-16T05:56:07;4.07;;;3.67;;
20318;SDS011;10317;47.254;11.314;2023-01-16T05:58:34;4.97;;;4.47;;
20318;SDS011;10317;47.254;11.314;2023-01-16T06:01:00;5.57;;;5.00;;
20318;SDS011;10317;47.254;11.314;2023-01-16T06:03:26;5.05;;;4.22;;
20318;SDS011;10317;47.254;11.314;2023-01-16T06:05:51;5.55;;;4.85;;
20318;SDS011;10317;47.254;11.314;2023-01-16T06:08:17;4.82;;;4.43;;
20318;SDS011;10317;47.254;11.314;2023-01-16T06:10:42;4.50;;;4.10;;
20318;SDS011;10317;47.254;11.314;2023-01-16T06:13:10;5.50;;;4.80;;
20318;SDS011;10317;47.254;11.314;2023-01-16T06:15:36;5.50;;;4.93;;
20318;SDS011;10317;47.254;11.314;2023-01-16T06:18:01;4.88;;;4.22;;
20318;SDS011;10317;47.254;11.314;2023-01-16T06:20:27;5.50;;;4.85;;
20318;SDS011;10317;47.254;11.314;2023-01-16T06:22:53;4.90;;;4.40;;
20318;SDS011;10317;47.254;11.314;2023-01-16T06:25:19;4.97;;;4.50;;
20318;SDS011;10317;47.254;11.314;2023-01-16T06:27:48;6.43;;;4.45;;
20318;SDS011;10317;47.254;11.314;2023-01-16T06:30:17;4.65;;;4.15;;
20318;SDS011;10317;47.254;11.314;2023-01-16T06:32:43;5.18;;;4.30;;
20318;SDS011;10317;47.254;11.314;2023-01-16T06:35:13;5.05;;;4.55;;
20318;SDS011;10317;47.254;11.314;2023-01-16T06:37:38;5.50;;;4.28;;
20318;SDS011;10317;47.254;11.314;2023-01-16T06:40:04;6.60;;;4.43;;
20318;SDS011;10317;47.254;11.314;2023-01-16T06:42:30;5.38;;;4.47;;
20318;SDS011;10317;47.254;11.314;2023-01-16T06:44:56;4.70;;;4.15;;
20318;SDS011;10317;47.254;11.314;2023-01-16T06:47:22;5.53;;;4.47;;
20318;SDS011;10317;47.254;11.314;2023-01-16T06:49:47;6.10;;;4.82;;
20318;SDS011;10317;47.254;11.314;2023-01-16T06:52:13;5.10;;;4.60;;
20318;SDS011;10317;47.254;11.314;2023-01-16T06:54:39;6.38;;;5.30;;
20318;SDS011;10317;47.254;11.314;2023-01-16T06:57:04;5.47;;;4.95;;
20318;SDS011;10317;47.254;11.314;2023-01-16T06:59:33;7.38;;;4.57;;
20318;SDS011;10317;47.254;11.314;2023-01-16T07:02:01;5.05;;;4.45;;
20318;SDS011;10317;47.254;11.314;2023-01-16T07:04:34;4.43;;;3.97;;
20318;SDS011;10317;47.254;11.314;2023-01-16T07:07:04;3.08;;;2.83;;
20318;SDS011;10317;47.254;11.314;2023-01-16T07:09:32;3.13;;;2.80;;
20318;SDS011;10317;47.254;11.314;2023-01-16T07:11:58;4.28;;;2.83;;
20318;SDS011;10317;47.254;11.314;2023-01-16T07:14:24;3.15;;;2.92;;
20318;SDS011;10317;47.254;11.314;2023-01-16T07:17:09;2.95;;;2.75;;
20318;SDS011;10317;47.254;11.314;2023-01-16T07:19:59;2.80;;;2.35;;
20318;SDS011;10317;47.254;11.314;2023-01-16T07:22:44;2.67;;;2.28;;
20318;SDS011;10317;47.254;11.314;2023-01-16T07:25:12;3.08;;;2.53;;
20318;SDS011;10317;47.254;11.314;2023-01-16T07:27:42;3.20;;;2.90;;
20318;SDS011;10317;47.254;11.314;2023-01-16T07:30:10;3.47;;;2.50;;
20318;SDS011;10317;47.254;11.314;2023-01-16T07:32:36;2.70;;;2.50;;
20318;SDS011;10317;47.254;11.314;2023-01-16T07:35:02;2.95;;;2.80;;
20318;SDS011;10317;47.254;11.314;2023-01-16T07:37:28;4.82;;;3.15;;
20318;SDS011;10317;47.254;11.314;2023-01-16T07:39:54;3.60;;;3.03;;
20318;SDS011;10317;47.254;11.314;2023-01-16T07:42:20;3.55;;;2.72;;
20318;SDS011;10317;47.254;11.314;2023-01-16T07:44:45;3.67;;;2.55;;
20318;SDS011;10317;47.254;11.314;2023-01-16T07:47:11;3.20;;;2.88;;
20318;SDS011;10317;47.254;11.314;2023-01-16T07:49:37;3.35;;;3.05;;
20318;SDS011;10317;47.254;11.314;2023-01-16T07:52:03;5.90;;;3.38;;
20318;SDS011;10317;47.254;11.314;2023-01-16T07:54:29;3.60;;;2.83;;
20318;SDS011;10317;47.254;11.314;2023-01-16T07:56:54;4.53;;;3.53;;
20318;SDS011;10317;47.254;11.314;2023-01-16T07:59:20;5.60;;;3.50;;
20318;SDS011;10317;47.254;11.314;2023-01-16T08:01:46;4.25;;;3.85;;
20318;SDS011;10317;47.254;11.314;2023-01-16T08:04:12;3.92;;;3.50;;
20318;SDS011;10317;47.254;11.314;2023-01-16T08:06:38;4.38;;;3.70;;
20318;SDS011;10317;47.254;11.314;2023-01-16T08:09:09;3.80;;;3.28;;
20318;SDS011;10317;47.254;11.314;2023-01-16T08:11:35;3.55;;;3.03;;
20318;SDS011;10317;47.254;11.314;2023-01-16T08:14:02;2.90;;;2.70;;
20318;SDS011;10317;47.254;11.314;2023-01-16T08:16:29;3.75;;;3.38;;
20318;SDS011;10317;47.254;11.314;2023-01-16T08:18:54;4.03;;;3.17;;
20318;SDS011;10317;47.254;11.314;2023-01-16T08:21:20;3.45;;;3.13;;
20318;SDS011;10317;47.254;11.314;2023-01-16T08:23:46;3.40;;;2.83;;
20318;SDS011;10317;47.254;11.314;2023-01-16T08:26:12;2.90;;;2.70;;
20318;SDS011;10317;47.254;11.314;2023-01-16T08:28:41;3.92;;;2.90;;
20318;SDS011;10317;47.254;11.314;2023-01-16T08:31:08;3.33;;;3.05;;
20318;SDS011;10317;47.254;11.314;2023-01-16T08:33:38;3.22;;;2.63;;
20318;SDS011;10317;47.254;11.314;2023-01-16T08:36:10;4.35;;;3.47;;
20318;SDS011;10317;47.254;11.314;2023-01-16T08:38:36;7.63;;;5.45;;
20318;SDS011;10317;47.254;11.314;2023-01-16T08:41:03;7.50;;;5.95;;
20318;SDS011;10317;47.254;11.314;2023-01-16T08:43:29;7.75;;;5.93;;
20318;SDS011;10317;47.254;11.314;2023-01-16T08:46:20;8.18;;;6.45;;
20318;SDS011;10317;47.254;11.314;2023-01-16T08:49:08;8.23;;;6.05;;
20318;SDS011;10317;47.254;11.314;2023-01-16T08:51:56;8.23;;;5.78;;
20318;SDS011;10317;47.254;11.314;2023-01-16T08:54:24;8.93;;;6.70;;
20318;SDS011;10317;47.254;11.314;2023-01-16T08:56:50;9.63;;;6.50;;
20318;SDS011;10317;47.254;11.314;2023-01-16T08:59:18;10.88;;;7.05;;
20318;SDS011;10317;47.254;11.314;2023-01-16T09:01:44;8.50;;;6.35;;
20318;SDS011;10317;47.254;11.314;2023-01-16T09:04:09;9.23;;;7.20;;
20318;SDS011;10317;47.254;11.314;2023-01-16T09:06:35;8.60;;;6.55;;
20318;SDS011;10317;47.254;11.314;2023-01-16T09:09:04;9.13;;;6.93;;
20318;SDS011;10317;47.254;11.314;2023-01-16T09:11:34;11.52;;;7.03;;
20318;SDS011;10317;47.254;11.314;2023-01-16T09:14:18;8.10;;;6.47;;
20318;SDS011;10317;47.254;11.314;2023-01-16T09:16:44;8.73;;;6.80;;
20318;SDS011;10317;47.254;11.314;2023-01-16T09:19:11;10.13;;;6.20;;
20318;SDS011;10317;47.254;11.314;2023-01-16T09:21:36;7.35;;;6.15;;
20318;SDS011;10317;47.254;11.314;2023-01-16T09:24:02;8.48;;;5.75;;
20318;SDS011;10317;47.254;11.314;2023-01-16T09:26:28;6.10;;;5.50;;
20318;SDS011;10317;47.254;11.314;2023-01-16T09:28:55;7.25;;;5.35;;
20318;SDS011;10317;47.254;11.314;2023-01-16T09:31:21;5.38;;;4.85;;
20318;SDS011;10317;47.254;11.314;2023-01-16T09:33:47;5.78;;;5.15;;
20318;SDS011;10317;47.254;11.314;2023-01-16T09:36:13;5.47;;;4.90;;
20318;SDS011;10317;47.254;11.314;2023-01-16T09:38:39;6.43;;;4.90;;
20318;SDS011;10317;47.254;11.314;2023-01-16T09:41:05;6.10;;;4.07;;
20318;SDS011;10317;47.254;11.314;2023-01-16T09:46:10;4.80;;;4.30;;
20318;SDS011;10317;47.254;11.314;2023-01-16T09:48:46;5.20;;;4.15;;
20318;SDS011;10317;47.254;11.314;2023-01-16T09:51:26;4.60;;;4.20;;
20318;SDS011;10317;47.254;11.314;2023-01-16T09:54:05;3.58;;;3.28;;
20318;SDS011;10317;47.254;11.314;2023-01-16T09:56:58;4.13;;;3.20;;
20318;SDS011;10317;47.254;11.314;2023-01-16T09:59:46;4.05;;;3.60;;
20318;SDS011;10317;47.254;11.314;2023-01-16T10:02:27;3.55;;;3.20;;
20318;SDS011;10317;47.254;11.314;2023-01-16T10:04:57;3.65;;;3.17;;
20318;SDS011;10317;47.254;11.314;2023-01-16T10:07:36;4.25;;;2.78;;
20318;SDS011;10317;47.254;11.314;2023-01-16T10:10:28;2.55;;;2.40;;
20318;SDS011;10317;47.254;11.314;2023-01-16T10:19:17;3.65;;;2.83;;
20318;SDS011;10317;47.254;11.314;2023-01-16T10:30:10;2.28;;;2.17;;
20318;SDS011;10317;47.254;11.314;2023-01-16T10:32:43;3.00;;;2.72;;
20318;SDS011;10317;47.254;11.314;2023-01-16T10:35:32;5.55;;;2.72;;
20318;SDS011;10317;47.254;11.314;2023-01-16T10:38:21;3.50;;;2.80;;
20318;SDS011;10317;47.254;11.314;2023-01-16T10:41:19;2.83;;;2.58;;
20318;SDS011;10317;47.254;11.314;2023-01-16T10:44:11;3.63;;;3.33;;
20318;SDS011;10317;47.254;11.314;2023-01-16T10:47:06;3.33;;;3.05;;
20318;SDS011;10317;47.254;11.314;2023-01-16T10:49:54;3.55;;;3.22;;
20318;SDS011;10317;47.254;11.314;2023-01-16T10:52:19;3.38;;;2.60;;
20318;SDS011;10317;47.254;11.314;2023-01-16T10:54:45;3.00;;;2.80;;
20318;SDS011;10317;47.254;11.314;2023-01-16T10:57:15;3.53;;;3.05;;
20318;SDS011;10317;47.254;11.314;2023-01-16T10:59:42;3.28;;;2.97;;
20318;SDS011;10317;47.254;11.314;2023-01-16T11:02:24;3.33;;;3.03;;
20318;SDS011;10317;47.254;11.314;2023-01-16T11:04:58;3.30;;;2.88;;
20318;SDS011;10317;47.254;11.314;2023-01-16T11:07:26;3.45;;;3.15;;
20318;SDS011;10317;47.254;11.314;2023-01-16T11:09:54;3.20;;;2.90;;
20318;SDS011;10317;47.254;11.314;2023-01-16T11:12:24;2.78;;;2.58;;
20318;SDS011;10317;47.254;11.314;2023-01-16T11:15:22;2.50;;;2.40;;
20318;SDS011;10317;47.254;11.314;2023-01-16T11:20:57;2.85;;;2.65;;
20318;SDS011;10317;47.254;11.314;2023-01-16T11:23:27;3.30;;;2.70;;
20318;SDS011;10317;47.254;11.314;2023-01-16T11:26:03;2.40;;;2.30;;
20318;SDS011;10317;47.254;11.314;2023-01-16T11:28:31;2.90;;;2.60;;
20318;SDS011;10317;47.254;11.314;2023-01-16T11:30:57;2.42;;;2.33;;
20318;SDS011;10317;47.254;11.314;2023-01-16T11:33:32;3.78;;;2.45;;
20318;SDS011;10317;47.254;11.314;2023-01-16T11:36:03;2.47;;;2.33;;
20318;SDS011;10317;47.254;11.314;2023-01-16T11:38:31;3.15;;;2.50;;
20318;SDS011;10317;47.254;11.314;2023-01-16T11:41:00;2.65;;;2.45;;
20318;SDS011;10317;47.254;11.314;2023-01-16T11:43:28;2.55;;;2.35;;
20318;SDS011;10317;47.254;11.314;2023-01-16T11:46:20;2.28;;;2.10;;
20318;SDS011;10317;47.254;11.314;2023-01-16T11:48:53;2.58;;;2.38;;
20318;SDS011;10317;47.254;11.314;2023-01-16T11:51:30;2.65;;;2.45;;
20318;SDS011;10317;47.254;11.314;2023-01-16T11:53:58;2.38;;;2.28;;
20318;SDS011;10317;47.254;11.314;2023-01-16T12:02:11;2.50;;;2.33;;
20318;SDS011;10317;47.254;11.314;2023-01-16T12:04:53;2.08;;;1.98;;
20318;SDS011;10317;47.254;11.314;2023-01-16T12:12:59;2.50;;;2.40;;
20318;SDS011;10317;47.254;11.314;2023-01-16T12:16:10;2.20;;;2.10;;
20318;SDS011;10317;47.254;11.314;2023-01-16T12:24:06;2.85;;;1.98;;
20318;SDS011;10317;47.254;11.314;2023-01-16T12:27:29;2.22;;;2.00;;
20318;SDS011;10317;47.254;11.314;2023-01-16T12:43:03;1.80;;;1.70;;
20318;SDS011;10317;47.254;11.314;2023-01-16T12:45:59;2.08;;;1.90;;
20318;SDS011;10317;47.254;11.314;2023-01-16T13:04:48;2.08;;;1.60;;
20318;SDS011;10317;47.254;11.314;2023-01-16T13:07:28;2.05;;;1.80;;
20318;SDS011;10317;47.254;11.314;2023-01-16T13:12:45;1.40;;;1.40;;
20318;SDS011;10317;47.254;11.314;2023-01-16T13:15:34;1.75;;;1.60;;
20318;SDS011;10317;47.254;11.314;2023-01-16T13:18:21;2.00;;;1.65;;
20318;SDS011;10317;47.254;11.314;2023-01-16T13:21:12;2.42;;;2.15;;
20318;SDS011;10317;47.254;11.314;2023-01-16T13:23:45;1.50;;;1.40;;
20318;SDS011;10317;47.254;11.314;2023-01-16T13:26:19;1.70;;;1.60;;
20318;SDS011;10317;47.254;11.314;2023-01-16T13:28:49;2.70;;;1.42;;
20318;SDS011;10317;47.254;11.314;2023-01-16T13:31:19;3.03;;;1.73;;
20318;SDS011;10317;47.254;11.314;2023-01-16T13:36:53;1.75;;;1.65;;
20318;SDS011;10317;47.254;11.314;2023-01-16T13:42:30;1.70;;;1.60;;
20318;SDS011;10317;47.254;11.314;2023-01-16T13:44:59;1.73;;;1.70;;
20318;SDS011;10317;47.254;11.314;2023-01-16T13:47:48;1.80;;;1.63;;
20318;SDS011;10317;47.254;11.314;2023-01-16T13:50:17;3.70;;;1.77;;
20318;SDS011;10317;47.254;11.314;2023-01-16T13:52:55;1.88;;;1.50;;
20318;SDS011;10317;47.254;11.314;2023-01-16T13:55:29;3.53;;;2.47;;
20318;SDS011;10317;47.254;11.314;2023-01-16T13:58:19;2.90;;;2.05;;
20318;SDS011;10317;47.254;11.314;2023-01-16T14:01:01;2.00;;;1.60;;
20318;SDS011;10317;47.254;11.314;2023-01-16T14:03:30;2.38;;;1.65;;
20318;SDS011;10317;47.254;11.314;2023-01-16T14:06:42;1.85;;;1.75;;
20318;SDS011;10317;47.254;11.314;2023-01-16T14:09:06;2.30;;;2.10;;
20318;SDS011;10317;47.254;11.314;2023-01-16T14:17:59;3.30;;;1.75;;
20318;SDS011;10317;47.254;11.314;2023-01-16T14:20:41;2.85;;;1.95;;
20318;SDS011;10317;47.254;11.314;2023-01-16T14:23:19;3.38;;;1.83;;
20318;SDS011;10317;47.254;11.314;2023-01-16T14:26:09;2.00;;;1.90;;
20318;SDS011;10317;47.254;11.314;2023-01-16T14:28:46;2.78;;;2.05;;
20318;SDS011;10317;47.254;11.314;2023-01-16T14:31:18;1.60;;;1.50;;
20318;SDS011;10317;47.254;11.314;2023-01-16T14:33:48;4.32;;;1.95;;
20318;SDS011;10317;47.254;11.314;2023-01-16T14:36:14;1.98;;;1.88;;
20318;SDS011;10317;47.254;11.314;2023-01-16T14:38:48;5.32;;;2.10;;
20318;SDS011;10317;47.254;11.314;2023-01-16T14:41:23;3.65;;;2.20;;
20318;SDS011;10317;47.254;11.314;2023-01-16T14:44:16;2.30;;;2.20;;
20318;SDS011;10317;47.254;11.314;2023-01-16T14:52:56;2.53;;;2.13;;
20318;SDS011;10317;47.254;11.314;2023-01-16T14:58:32;2.58;;;2.38;;
20318;SDS011;10317;47.254;11.314;2023-01-16T15:01:26;3.05;;;2.35;;
20318;SDS011;10317;47.254;11.314;2023-01-16T15:33:57;4.85;;;1.88;;
20318;SDS011;10317;47.254;11.314;2023-01-16T15:36:42;2.85;;;1.80;;
20318;SDS011;10317;47.254;11.314;2023-01-16T15:39:15;1.92;;;1.80;;
20318;SDS011;10317;47.254;11.314;2023-01-16T15:41:46;4.85;;;2.33;;
20318;SDS011;10317;47.254;11.314;2023-01-16T15:44:43;4.60;;;2.72;;
20318;SDS011;10317;47.254;11.314;2023-01-16T15:52:43;3.67;;;2.88;;
20318;SDS011;10317;47.254;11.314;2023-01-16T15:55:43;4.65;;;2.75;;
20318;SDS011;10317;47.254;11.314;2023-01-16T15:58:14;4.70;;;2.85;;
20318;SDS011;10317;47.254;11.314;2023-01-16T16:00:41;7.03;;;3.10;;
20318;SDS011;10317;47.254;11.314;2023-01-16T16:03:16;5.70;;;3.45;;
20318;SDS011;10317;47.254;11.314;2023-01-16T16:05:47;7.03;;;3.08;;
20318;SDS011;10317;47.254;11.314;2023-01-16T16:08:22;3.33;;;2.65;;
20318;SDS011;10317;47.254;11.314;2023-01-16T16:10:51;3.88;;;2.72;;
20318;SDS011;10317;47.254;11.314;2023-01-16T16:13:36;5.15;;;3.17;;
20318;SDS011;10317;47.254;11.314;2023-01-16T16:16:03;6.53;;;2.90;;
20318;SDS011;10317;47.254;11.314;2023-01-16T16:19:29;3.28;;;2.78;;
20318;SDS011;10317;47.254;11.314;2023-01-16T16:21:56;4.63;;;2.97;;
20318;SDS011;10317;47.254;11.314;2023-01-16T16:24:45;2.92;;;2.63;;
20318;SDS011;10317;47.254;11.314;2023-01-16T16:27:11;3.20;;;2.47;;
20318;SDS011;10317;47.254;11.314;2023-01-16T16:29:41;2.00;;;1.90;;
20318;SDS011;10317;47.254;11.314;2023-01-16T16:32:13;4.28;;;2.38;;
20318;SDS011;10317;47.254;11.314;2023-01-16T16:34:41;3.40;;;2.70;;
20318;SDS011;10317;47.254;11.314;2023-01-16T16:37:19;3.20;;;2.47;;
20318;SDS011;10317;47.254;11.314;2023-01-16T16:42:55;4.82;;;2.75;;
20318;SDS011;10317;47.254;11.314;2023-01-16T17:48:50;3.65;;;2.13;;
20318;SDS011;10317;47.254;11.314;2023-01-16T17:51:16;2.35;;;2.08;;
20318;SDS011;10317;47.254;11.314;2023-01-16T17:53:50;2.58;;;2.38;;
20318;SDS011;10317;47.254;11.314;2023-01-16T17:56:17;2.35;;;2.10;;
20318;SDS011;10317;47.254;11.314;2023-01-16T17:58:44;2.63;;;2.42;;
20318;SDS011;10317;47.254;11.314;2023-01-16T18:01:28;2.70;;;2.50;;
20318;SDS011;10317;47.254;11.314;2023-01-16T18:03:55;2.47;;;2.33;;
20318;SDS011;10317;47.254;11.314;2023-01-16T18:09:24;2.88;;;2.40;;
20318;SDS011;10317;47.254;11.314;2023-01-16T18:11:50;3.92;;;3.08;;
20318;SDS011;10317;47.254;11.314;2023-01-16T18:14:38;3.70;;;2.67;;
20318;SDS011;10317;47.254;11.314;2023-01-16T18:17:22;2.75;;;2.55;;
20318;SDS011;10317;47.254;11.314;2023-01-16T18:19:51;2.50;;;2.30;;
20318;SDS011;10317;47.254;11.314;2023-01-16T18:22:22;4.13;;;3.33;;
20318;SDS011;10317;47.254;11.314;2023-01-16T18:24:49;2.50;;;2.28;;
20318;SDS011;10317;47.254;11.314;2023-01-16T18:27:15;2.70;;;2.50;;
20318;SDS011;10317;47.254;11.314;2023-01-16T18:29:42;2.50;;;2.40;;
20318;SDS011;10317;47.254;11.314;2023-01-16T18:32:10;3.72;;;2.90;;
20318;SDS011;10317;47.254;11.314;2023-01-16T19:06:28;9.45;;;5.43;;
20318;SDS011;10317;47.254;11.314;2023-01-16T19:08:53;8.10;;;4.75;;
20318;SDS011;10317;47.254;11.314;2023-01-16T19:11:19;9.02;;;6.20;;
20318;SDS011;10317;47.254;11.314;2023-01-16T19:13:45;7.47;;;4.20;;
20318;SDS011;10317;47.254;11.314;2023-01-16T19:16:13;6.35;;;4.45;;
20318;SDS011;10317;47.254;11.314;2023-01-16T19:18:57;5.40;;;4.50;;
20318;SDS011;10317;47.254;11.314;2023-01-16T19:21:23;5.85;;;4.45;;
20318;SDS011;10317;47.254;11.314;2023-01-16T19:23:49;4.75;;;3.90;;
20318;SDS011;10317;47.254;11.314;2023-01-16T19:26:15;6.80;;;3.95;;
20318;SDS011;10317;47.254;11.314;2023-01-16T19:57:53;11.90;;;6.82;;
20318;SDS011;10317;47.254;11.314;2023-01-16T20:00:19;10.75;;;7.00;;
20318;SDS011;10317;47.254;11.314;2023-01-16T20:02:46;11.45;;;7.70;;
20318;SDS011;10317;47.254;11.314;2023-01-16T20:05:11;16.40;;;8.85;;
20318;SDS011;10317;47.254;11.314;2023-01-16T20:07:37;16.40;;;9.18;;
20318;SDS011;10317;47.254;11.314;2023-01-16T20:10:03;15.35;;;6.93;;
20318;SDS011;10317;47.254;11.314;2023-01-16T20:12:29;13.60;;;7.07;;
20318;SDS011;10317;47.254;11.314;2023-01-16T20:14:58;11.23;;;6.18;;
20318;SDS011;10317;47.254;11.314;2023-01-16T20:17:26;7.90;;;6.18;;
20318;SDS011;10317;47.254;11.314;2023-01-16T20:19:58;14.77;;;7.78;;
20318;SDS011;10317;47.254;11.314;2023-01-16T20:22:25;9.88;;;6.50;;
20318;SDS011;10317;47.254;11.314;2023-01-16T20:24:51;11.50;;;6.40;;
20318;SDS011;10317;47.254;11.314;2023-01-16T20:27:17;12.35;;;6.32;;
20318;SDS011;10317;47.254;11.314;2023-01-16T20:29:47;7.53;;;4.97;;
20318;SDS011;10317;47.254;11.314;2023-01-16T20:32:16;7.05;;;4.63;;